Climatologie pour Saint-Brevin les Pins
Jour • Résumé pour avril 5, 2017 Système :  Métrique    Anglais   Mixte
« - 1 jour
+ 1 jour »
Jour Semaine Mois Année Personnalisé
  Maximum : Minimum : Moyenne :
Température sous abri : 18.8 °C 8.8 °C 12.7 °C
Point de rosée : 12.3 °C 6.3 °C 9.3 °C
Humidité : 96 % 52 % 82 %
Vitesse du vent : 22.5 km/h 0.0 km/h 7.8 km/h
Rafale : 30.6 km/h - -
Direction :- - East
Pression : 1030.0 hPa 1027.3 hPa -
Précipitations : 0.0 mm    
Historical Graphs
 
 
Tableau de données pour avril 5, 2017
Heure Tempé Pt rosée Pression Vent Vitesse Rafale Humidité Taux pluie (/hr) Soleil
00:00 11.0 °C 9.3 °C 1027.3 hPa NNE 3.2 km/h 14.5 km/h 89 % 0.0 mm 0 W/m2
00:05 11.1 °C 9.3 °C 1027.3 hPa NE 6.4 km/h 12.9 km/h 89 % 0.0 mm 0 W/m2
00:10 11.1 °C 9.3 °C 1027.3 hPa North 11.3 km/h 12.9 km/h 89 % 0.0 mm 0 W/m2
00:15 11.0 °C 9.3 °C 1027.3 hPa NNE 11.3 km/h 16.1 km/h 89 % 0.0 mm 0 W/m2
00:20 10.9 °C 9.4 °C 1027.3 hPa NNW 8.0 km/h 16.1 km/h 90 % 0.0 mm 0 W/m2
00:25 10.9 °C 9.4 °C 1027.3 hPa North 4.8 km/h 17.7 km/h 90 % 0.0 mm 0 W/m2
00:30 11.0 °C 9.6 °C 1027.3 hPa North 9.7 km/h 17.7 km/h 91 % 0.0 mm 0 W/m2
00:35 11.0 °C 9.6 °C 1027.3 hPa NNE 1.6 km/h 19.3 km/h 91 % 0.0 mm 0 W/m2
00:40 10.9 °C 9.3 °C 1027.3 hPa NNE 3.2 km/h 19.3 km/h 90 % 0.0 mm 0 W/m2
00:45 10.7 °C 9.3 °C 1027.3 hPa ENE 8.0 km/h 16.1 km/h 91 % 0.0 mm 0 W/m2
00:50 10.6 °C 9.2 °C 1027.3 hPa NNE 1.6 km/h 19.3 km/h 91 % 0.0 mm 0 W/m2
00:55 10.7 °C 9.3 °C 1027.3 hPa North 6.4 km/h 19.3 km/h 91 % 0.0 mm 0 W/m2
01:00 10.6 °C 9.1 °C 1027.3 hPa North 6.4 km/h 14.5 km/h 91 % 0.0 mm 0 W/m2
01:05 10.3 °C 8.9 °C 1027.7 hPa North 9.7 km/h 14.5 km/h 91 % 0.0 mm 0 W/m2
01:10 10.3 °C 9.1 °C 1027.7 hPa North 6.4 km/h 16.1 km/h 92 % 0.0 mm 0 W/m2
01:15 10.3 °C 9.0 °C 1027.3 hPa NNE 6.4 km/h 16.1 km/h 92 % 0.0 mm 0 W/m2
01:20 10.2 °C 8.9 °C 1027.3 hPa NNE 4.8 km/h 14.5 km/h 92 % 0.0 mm 0 W/m2
01:25 10.0 °C 8.8 °C 1027.3 hPa North 1.6 km/h 14.5 km/h 92 % 0.0 mm 0 W/m2
01:30 9.9 °C 8.8 °C 1027.7 hPa North 4.8 km/h 9.7 km/h 93 % 0.0 mm 0 W/m2
01:35 9.8 °C 8.8 °C 1027.7 hPa NE 3.2 km/h 12.9 km/h 93 % 0.0 mm 0 W/m2
01:40 9.8 °C 8.8 °C 1027.7 hPa NE 3.2 km/h 12.9 km/h 93 % 0.0 mm 0 W/m2
01:45 9.7 °C 8.6 °C 1027.3 hPa NNW 3.2 km/h 11.3 km/h 93 % 0.0 mm 0 W/m2
01:50 9.7 °C 8.7 °C 1027.3 hPa NW 6.4 km/h 14.5 km/h 94 % 0.0 mm 0 W/m2
01:55 9.7 °C 8.6 °C 1027.7 hPa North 8.0 km/h 14.5 km/h 93 % 0.0 mm 0 W/m2
02:00 9.5 °C 8.6 °C 1027.3 hPa North 9.7 km/h 14.5 km/h 94 % 0.0 mm 0 W/m2
02:05 9.4 °C 8.5 °C 1027.3 hPa NNE 3.2 km/h 14.5 km/h 94 % 0.0 mm 0 W/m2
02:10 9.3 °C 8.4 °C 1027.3 hPa NE 8.0 km/h 11.3 km/h 94 % 0.0 mm 0 W/m2
02:15 9.4 °C 8.5 °C 1027.3 hPa NE 3.2 km/h 12.9 km/h 94 % 0.0 mm 0 W/m2
02:20 9.5 °C 8.6 °C 1027.3 hPa NNE 9.7 km/h 14.5 km/h 94 % 0.0 mm 0 W/m2
02:25 9.5 °C 8.6 °C 1027.7 hPa WNW 1.6 km/h 14.5 km/h 94 % 0.0 mm 0 W/m2
02:30 9.6 °C 8.8 °C 1027.7 hPa NNE 1.6 km/h 14.5 km/h 95 % 0.0 mm 0 W/m2
02:35 9.4 °C 8.5 °C 1027.7 hPa NNE 3.2 km/h 14.5 km/h 94 % 0.0 mm 0 W/m2
02:40 9.4 °C 8.6 °C 1027.7 hPa ENE 6.4 km/h 14.5 km/h 95 % 0.0 mm 0 W/m2
02:45 9.4 °C 8.7 °C 1027.7 hPa NNE 6.4 km/h 14.5 km/h 95 % 0.0 mm 0 W/m2
02:50 9.3 °C 8.4 °C 1027.7 hPa NNE 4.8 km/h 11.3 km/h 94 % 0.0 mm 0 W/m2
02:55 9.2 °C 8.3 °C 1027.7 hPa North 1.6 km/h 11.3 km/h 94 % 0.0 mm 0 W/m2
03:00 9.2 °C 8.5 °C 1027.7 hPa NNE 3.2 km/h 12.9 km/h 95 % 0.0 mm 0 W/m2
03:05 9.1 °C 8.3 °C 1027.7 hPa NE 4.8 km/h 12.9 km/h 95 % 0.0 mm 0 W/m2
03:10 8.9 °C 8.2 °C 1027.7 hPa NNE 4.8 km/h 11.3 km/h 95 % 0.0 mm 0 W/m2
03:15 8.9 °C 8.2 °C 1027.7 hPa NE 6.4 km/h 11.3 km/h 95 % 0.0 mm 0 W/m2
03:20 8.9 °C 8.2 °C 1027.7 hPa NNE 4.8 km/h 12.9 km/h 95 % 0.0 mm 0 W/m2
03:25 8.8 °C 8.1 °C 1027.7 hPa North 4.8 km/h 12.9 km/h 95 % 0.0 mm 0 W/m2
03:30 9.0 °C 8.4 °C 1027.7 hPa NNE 3.2 km/h 17.7 km/h 96 % 0.0 mm 0 W/m2
03:35 9.1 °C 8.5 °C 1027.7 hPa NE 6.4 km/h 17.7 km/h 96 % 0.0 mm 0 W/m2
03:40 9.2 °C 8.6 °C 1027.7 hPa North 8.0 km/h 14.5 km/h 96 % 0.0 mm 0 W/m2
03:45 9.1 °C 8.5 °C 1027.7 hPa ENE 6.4 km/h 14.5 km/h 96 % 0.0 mm 0 W/m2
03:50 9.2 °C 8.6 °C 1027.7 hPa NE 6.4 km/h 19.3 km/h 96 % 0.0 mm 0 W/m2
03:55 9.2 °C 8.6 °C 1027.7 hPa NNE 3.2 km/h 19.3 km/h 96 % 0.0 mm 0 W/m2
04:00 9.3 °C 8.7 °C 1027.7 hPa North 11.3 km/h 12.9 km/h 96 % 0.0 mm 0 W/m2
04:05 9.3 °C 8.7 °C 1027.7 hPa NNE 4.8 km/h 12.9 km/h 96 % 0.0 mm 0 W/m2
04:10 9.5 °C 8.9 °C 1028.0 hPa NE 8.0 km/h 14.5 km/h 96 % 0.0 mm 0 W/m2
04:15 9.7 °C 9.1 °C 1028.0 hPa NNW 9.7 km/h 16.1 km/h 96 % 0.0 mm 0 W/m2
04:20 9.8 °C 9.2 °C 1028.0 hPa NE 4.8 km/h 16.1 km/h 96 % 0.0 mm 0 W/m2
04:25 9.9 °C 9.3 °C 1028.0 hPa NE 12.9 km/h 20.9 km/h 96 % 0.0 mm 0 W/m2
04:30 9.9 °C 9.3 °C 1028.0 hPa ENE 6.4 km/h 20.9 km/h 96 % 0.0 mm 0 W/m2
04:35 10.1 °C 9.3 °C 1028.0 hPa ENE 8.0 km/h 19.3 km/h 95 % 0.0 mm 0 W/m2
04:40 10.1 °C 9.3 °C 1028.0 hPa NE 8.0 km/h 19.3 km/h 95 % 0.0 mm 0 W/m2
04:45 10.2 °C 9.4 °C 1028.0 hPa NNE 4.8 km/h 17.7 km/h 95 % 0.0 mm 0 W/m2
04:50 10.2 °C 9.5 °C 1028.0 hPa East 4.8 km/h 17.7 km/h 95 % 0.0 mm 0 W/m2
04:55 10.2 °C 9.5 °C 1028.0 hPa ENE 11.3 km/h 17.7 km/h 95 % 0.0 mm 0 W/m2
05:00 10.2 °C 9.5 °C 1028.0 hPa NE 9.7 km/h 17.7 km/h 95 % 0.0 mm 0 W/m2
05:05 10.2 °C 9.3 °C 1028.0 hPa NE 3.2 km/h 17.7 km/h 94 % 0.0 mm 0 W/m2
05:10 10.2 °C 9.2 °C 1028.0 hPa NNE 4.8 km/h 14.5 km/h 94 % 0.0 mm 0 W/m2
05:15 10.1 °C 9.2 °C 1028.0 hPa NE 6.4 km/h 14.5 km/h 94 % 0.0 mm 0 W/m2
05:25 10.1 °C 9.1 °C 1028.0 hPa NE 3.2 km/h 16.1 km/h 94 % 0.0 mm 0 W/m2
05:30 10.1 °C 9.1 °C 1028.0 hPa NNE 6.4 km/h 16.1 km/h 94 % 0.0 mm 0 W/m2
05:35 9.9 °C 9.0 °C 1028.0 hPa NNE 6.4 km/h 16.1 km/h 94 % 0.0 mm 0 W/m2
05:40 9.8 °C 8.9 °C 1028.0 hPa NE 3.2 km/h 12.9 km/h 94 % 0.0 mm 0 W/m2
05:45 9.8 °C 8.9 °C 1028.0 hPa NE 6.4 km/h 12.9 km/h 94 % 0.0 mm 0 W/m2
05:50 9.8 °C 8.9 °C 1028.0 hPa ENE 3.2 km/h 9.7 km/h 94 % 0.0 mm 0 W/m2
05:55 9.9 °C 9.0 °C 1028.0 hPa North 4.8 km/h 9.7 km/h 94 % 0.0 mm 0 W/m2
06:00 10.0 °C 9.2 °C 1028.0 hPa North 4.8 km/h 11.3 km/h 95 % 0.0 mm 0 W/m2
06:05 10.1 °C 9.1 °C 1028.0 hPa NNE 3.2 km/h 11.3 km/h 94 % 0.0 mm 0 W/m2
06:10 10.1 °C 9.2 °C 1028.0 hPa NNE 4.8 km/h 9.7 km/h 94 % 0.0 mm 0 W/m2
06:15 10.2 °C 9.2 °C 1028.0 hPa NE 11.3 km/h 11.3 km/h 94 % 0.0 mm 0 W/m2
06:20 10.2 °C 9.3 °C 1028.0 hPa NNE 6.4 km/h 14.5 km/h 94 % 0.0 mm 0 W/m2
06:25 10.2 °C 9.3 °C 1028.0 hPa NNE 6.4 km/h 14.5 km/h 94 % 0.0 mm 0 W/m2
06:30 10.2 °C 9.3 °C 1028.0 hPa NE 6.4 km/h 12.9 km/h 94 % 0.0 mm 0 W/m2
06:35 10.3 °C 9.4 °C 1028.0 hPa Calm   12.9 km/h 94 % 0.0 mm 0 W/m2
06:40 10.3 °C 9.4 °C 1028.0 hPa NNE 4.8 km/h 8.0 km/h 94 % 0.0 mm 0 W/m2
06:45 10.3 °C 9.4 °C 1028.0 hPa NNE 8.0 km/h 9.7 km/h 94 % 0.0 mm 0 W/m2
06:50 10.3 °C 9.4 °C 1028.0 hPa North 4.8 km/h 12.9 km/h 94 % 0.0 mm 0 W/m2
06:55 10.3 °C 9.4 °C 1028.0 hPa NE 8.0 km/h 12.9 km/h 94 % 0.0 mm 0 W/m2
07:00 10.4 °C 9.5 °C 1028.0 hPa NNE 3.2 km/h 12.9 km/h 94 % 0.0 mm 0 W/m2
07:05 10.4 °C 9.5 °C 1028.0 hPa NNE 3.2 km/h 12.9 km/h 94 % 0.0 mm 0 W/m2
07:10 10.4 °C 9.5 °C 1028.0 hPa NNE 1.6 km/h 9.7 km/h 94 % 0.0 mm 0 W/m2
07:15 10.4 °C 9.5 °C 1028.0 hPa NE 9.7 km/h 9.7 km/h 94 % 0.0 mm 0 W/m2
07:20 10.3 °C 9.4 °C 1028.0 hPa NNE 3.2 km/h 12.9 km/h 94 % 0.0 mm 0 W/m2
07:25 10.3 °C 9.4 °C 1028.0 hPa NNE 4.8 km/h 12.9 km/h 94 % 0.0 mm 0 W/m2
07:30 10.1 °C 9.1 °C 1028.0 hPa Calm   9.7 km/h 94 % 0.0 mm 0 W/m2
07:35 9.8 °C 8.9 °C 1028.0 hPa Calm   8.0 km/h 94 % 0.0 mm 0 W/m2
07:40 9.7 °C 8.7 °C 1028.3 hPa NE 1.6 km/h 8.0 km/h 94 % 0.0 mm 0 W/m2
07:45 9.6 °C 8.8 °C 1028.3 hPa NNE 1.6 km/h 8.0 km/h 95 % 0.0 mm 5 W/m2
07:50 9.4 °C 8.6 °C 1028.3 hPa NNE 4.8 km/h 8.0 km/h 95 % 0.0 mm 7 W/m2
07:55 9.3 °C 8.6 °C 1028.3 hPa NE 3.2 km/h 9.7 km/h 95 % 0.0 mm 11 W/m2
08:00 9.3 °C 8.6 °C 1028.3 hPa North 3.2 km/h 9.7 km/h 95 % 0.0 mm 18 W/m2
08:05 9.3 °C 8.5 °C 1028.3 hPa NNE 1.6 km/h 8.0 km/h 95 % 0.0 mm 18 W/m2
08:10 9.5 °C 8.9 °C 1028.7 hPa NNE 11.3 km/h 11.3 km/h 96 % 0.0 mm 18 W/m2
08:15 9.6 °C 8.9 °C 1028.7 hPa NNE 6.4 km/h 11.3 km/h 96 % 0.0 mm 32 W/m2
08:20 9.6 °C 8.9 °C 1028.7 hPa North 3.2 km/h 14.5 km/h 96 % 0.0 mm 42 W/m2
08:30 9.7 °C 9.1 °C 1028.7 hPa NNE 8.0 km/h 11.3 km/h 96 % 0.0 mm 51 W/m2
08:35 9.9 °C 9.3 °C 1029.0 hPa NNW 1.6 km/h 11.3 km/h 96 % 0.0 mm 56 W/m2
08:40 10.2 °C 9.6 °C 1029.0 hPa NNE 3.2 km/h 11.3 km/h 96 % 0.0 mm 62 W/m2
08:45 10.3 °C 9.7 °C 1029.0 hPa NNE 9.7 km/h 11.3 km/h 96 % 0.0 mm 65 W/m2
08:50 10.6 °C 9.9 °C 1029.0 hPa NNE 12.9 km/h 12.9 km/h 96 % 0.0 mm 67 W/m2
08:55 10.7 °C 10.1 °C 1029.0 hPa NE 4.8 km/h 17.7 km/h 96 % 0.0 mm 65 W/m2
09:00 10.8 °C 10.2 °C 1029.0 hPa NNW 4.8 km/h 17.7 km/h 96 % 0.0 mm 70 W/m2
09:05 10.8 °C 10.1 °C 1029.0 hPa North 4.8 km/h 14.5 km/h 95 % 0.0 mm 77 W/m2
09:10 10.9 °C 10.2 °C 1029.0 hPa NE 6.4 km/h 14.5 km/h 95 % 0.0 mm 74 W/m2
09:15 11.1 °C 10.3 °C 1029.3 hPa NE 6.4 km/h 14.5 km/h 95 % 0.0 mm 77 W/m2
09:20 11.1 °C 10.2 °C 1029.3 hPa Calm   14.5 km/h 94 % 0.0 mm 84 W/m2
09:25 11.2 °C 10.3 °C 1029.3 hPa ENE 4.8 km/h 14.5 km/h 94 % 0.0 mm 86 W/m2
09:30 11.2 °C 10.1 °C 1029.3 hPa ENE 11.3 km/h 14.5 km/h 93 % 0.0 mm 97 W/m2
09:35 11.3 °C 10.2 °C 1029.3 hPa NE 1.6 km/h 12.9 km/h 93 % 0.0 mm 109 W/m2
09:40 11.4 °C 10.3 °C 1029.3 hPa NNE 6.4 km/h 11.3 km/h 93 % 0.0 mm 128 W/m2
09:45 11.6 °C 10.3 °C 1029.3 hPa NE 8.0 km/h 12.9 km/h 92 % 0.0 mm 155 W/m2
09:50 11.7 °C 10.4 °C 1029.3 hPa NNE 4.8 km/h 12.9 km/h 92 % 0.0 mm 155 W/m2
09:55 11.8 °C 10.5 °C 1029.3 hPa North 6.4 km/h 12.9 km/h 92 % 0.0 mm 144 W/m2
10:00 11.9 °C 10.5 °C 1029.3 hPa North 4.8 km/h 14.5 km/h 91 % 0.0 mm 153 W/m2
10:05 11.9 °C 10.5 °C 1029.3 hPa North 3.2 km/h 14.5 km/h 91 % 0.0 mm 163 W/m2
10:10 12.0 °C 10.6 °C 1029.3 hPa North 4.8 km/h 17.7 km/h 91 % 0.0 mm 169 W/m2
10:15 12.2 °C 10.7 °C 1029.3 hPa NNW 4.8 km/h 17.7 km/h 91 % 0.0 mm 169 W/m2
10:20 12.2 °C 10.8 °C 1029.7 hPa North 6.4 km/h 14.5 km/h 91 % 0.0 mm 183 W/m2
10:30 12.4 °C 10.8 °C 1029.7 hPa NNE 3.2 km/h 17.7 km/h 90 % 0.0 mm 190 W/m2
10:35 12.4 °C 10.8 °C 1029.7 hPa NNE 9.7 km/h 17.7 km/h 90 % 0.0 mm 209 W/m2
10:40 12.6 °C 11.0 °C 1029.7 hPa North 17.7 km/h 19.3 km/h 90 % 0.0 mm 213 W/m2
10:45 12.6 °C 10.8 °C 1029.7 hPa NNW 12.9 km/h 19.3 km/h 89 % 0.0 mm 243 W/m2
10:50 12.6 °C 10.8 °C 1029.7 hPa NNW 6.4 km/h 20.9 km/h 89 % 0.0 mm 253 W/m2
10:55 12.8 °C 11.1 °C 1029.7 hPa NNE 4.8 km/h 20.9 km/h 89 % 0.0 mm 299 W/m2
11:00 12.9 °C 10.9 °C 1029.7 hPa NE 16.1 km/h 20.9 km/h 88 % 0.0 mm 295 W/m2
11:05 12.9 °C 11.0 °C 1030.0 hPa North 11.3 km/h 20.9 km/h 88 % 0.0 mm 257 W/m2
11:10 13.1 °C 11.1 °C 1030.0 hPa North 4.8 km/h 25.7 km/h 88 % 0.0 mm 246 W/m2
11:15 13.2 °C 11.3 °C 1030.0 hPa NNE 12.9 km/h 25.7 km/h 88 % 0.0 mm 178 W/m2
11:20 13.2 °C 11.2 °C 1030.0 hPa NNE 4.8 km/h 19.3 km/h 88 % 0.0 mm 213 W/m2
11:25 13.3 °C 11.4 °C 1030.0 hPa North 6.4 km/h 19.3 km/h 88 % 0.0 mm 218 W/m2
11:30 13.4 °C 11.3 °C 1030.0 hPa NNE 14.5 km/h 16.1 km/h 87 % 0.0 mm 223 W/m2
11:35 13.3 °C 11.2 °C 1030.0 hPa NNE 4.8 km/h 17.7 km/h 87 % 0.0 mm 120 W/m2
11:40 13.2 °C 11.0 °C 1030.0 hPa NE 9.7 km/h 17.7 km/h 87 % 0.0 mm 134 W/m2
11:45 13.1 °C 10.9 °C 1029.7 hPa NE 4.8 km/h 19.3 km/h 87 % 0.0 mm 206 W/m2
11:50 13.3 °C 11.3 °C 1029.7 hPa NNE 12.9 km/h 19.3 km/h 88 % 0.0 mm 216 W/m2
11:55 13.4 °C 11.3 °C 1029.7 hPa NNE 9.7 km/h 16.1 km/h 87 % 0.0 mm 243 W/m2
12:00 13.4 °C 11.1 °C 1030.0 hPa North 9.7 km/h 22.5 km/h 86 % 0.0 mm 118 W/m2
12:05 13.3 °C 11.0 °C 1030.0 hPa NNE 20.9 km/h 22.5 km/h 86 % 0.0 mm 206 W/m2
12:10 13.3 °C 11.0 °C 1030.0 hPa NE 14.5 km/h 20.9 km/h 86 % 0.0 mm 220 W/m2
12:15 13.6 °C 11.4 °C 1030.0 hPa NNE 9.7 km/h 20.9 km/h 87 % 0.0 mm 327 W/m2
12:16 13.8 °C 11.7 °C 1030.0 hPa NNE 14.5 km/h 14.5 km/h 87 % 0.0 mm 308 W/m2
12:17 13.8 °C 11.6 °C 1030.0 hPa North 22.5 km/h 22.5 km/h 86 % 0.0 mm 279 W/m2
12:18 13.8 °C 11.3 °C 1030.0 hPa NE 19.3 km/h 22.5 km/h 85 % 0.0 mm 285 W/m2
12:19 13.8 °C 11.3 °C 1030.0 hPa NE 12.9 km/h 22.5 km/h 85 % 0.0 mm 307 W/m2
12:20 13.9 °C 11.4 °C 1030.0 hPa NE 16.1 km/h 22.5 km/h 85 % 0.0 mm 329 W/m2
12:21 13.9 °C 11.4 °C 1030.0 hPa NE 16.1 km/h 22.5 km/h 85 % 0.0 mm 348 W/m2
12:22 13.9 °C 11.2 °C 1030.0 hPa NNE 16.1 km/h 22.5 km/h 84 % 0.0 mm 362 W/m2
12:32 13.9 °C 11.4 °C 1029.7 hPa NNE 16.1 km/h 22.5 km/h 85 % 0.0 mm 362 W/m2
12:40 15.6 °C 12.1 °C 1029.3 hPa ENE 6.4 km/h 17.7 km/h 80 % 0.0 mm 735 W/m2
12:45 15.6 °C 12.0 °C 1029.3 hPa ENE 6.4 km/h 17.7 km/h 79 % 0.0 mm 807 W/m2
12:50 15.5 °C 11.7 °C 1029.3 hPa NNE 3.2 km/h 17.7 km/h 78 % 0.0 mm 315 W/m2
12:55 14.9 °C 11.1 °C 1029.3 hPa NNE 6.4 km/h 16.1 km/h 78 % 0.0 mm 260 W/m2
13:00 15.2 °C 11.7 °C 1029.3 hPa NNW 3.2 km/h 16.1 km/h 80 % 0.0 mm 341 W/m2
13:05 15.8 °C 12.2 °C 1029.3 hPa East 14.5 km/h 16.1 km/h 79 % 0.0 mm 469 W/m2
13:10 16.4 °C 11.8 °C 1029.3 hPa ENE 8.0 km/h 19.3 km/h 74 % 0.0 mm 768 W/m2
13:15 15.8 °C 11.4 °C 1029.3 hPa NE 6.4 km/h 19.3 km/h 75 % 0.0 mm 255 W/m2
13:20 16.3 °C 12.2 °C 1029.3 hPa NE 4.8 km/h 17.7 km/h 77 % 0.0 mm 868 W/m2
13:25 16.9 °C 12.3 °C 1029.3 hPa NE 11.3 km/h 20.9 km/h 74 % 0.0 mm 772 W/m2
13:30 17.0 °C 11.9 °C 1029.3 hPa NE 11.3 km/h 20.9 km/h 72 % 0.0 mm 830 W/m2
13:35 16.6 °C 11.5 °C 1029.3 hPa NE 16.1 km/h 20.9 km/h 72 % 0.0 mm 334 W/m2
13:40 16.2 °C 11.5 °C 1029.3 hPa NNE 4.8 km/h 20.9 km/h 74 % 0.0 mm 301 W/m2
13:45 16.9 °C 11.6 °C 1029.3 hPa ENE 9.7 km/h 20.9 km/h 71 % 0.0 mm 330 W/m2
13:50 16.6 °C 11.7 °C 1029.3 hPa ENE 11.3 km/h 17.7 km/h 73 % 0.0 mm 874 W/m2
13:55 17.6 °C 12.0 °C 1029.3 hPa NNE 3.2 km/h 20.9 km/h 70 % 0.0 mm 809 W/m2
14:00 17.7 °C 11.9 °C 1029.3 hPa North 8.0 km/h 20.9 km/h 69 % 0.0 mm 847 W/m2
14:05 17.6 °C 11.4 °C 1029.0 hPa East 4.8 km/h 20.9 km/h 67 % 0.0 mm 851 W/m2
14:10 17.5 °C 11.5 °C 1029.0 hPa ENE 6.4 km/h 24.1 km/h 68 % 0.0 mm 858 W/m2
14:15 17.6 °C 11.4 °C 1029.0 hPa North 16.1 km/h 24.1 km/h 67 % 0.0 mm 784 W/m2
14:20 17.6 °C 11.6 °C 1029.0 hPa NE 6.4 km/h 20.9 km/h 68 % 0.0 mm 784 W/m2
14:25 18.2 °C 11.9 °C 1029.0 hPa NNE 9.7 km/h 20.9 km/h 67 % 0.0 mm 830 W/m2
14:35 18.4 °C 12.0 °C 1029.0 hPa North 19.3 km/h 22.5 km/h 66 % 0.0 mm 911 W/m2
14:40 18.2 °C 11.3 °C 1028.7 hPa NNE 4.8 km/h 22.5 km/h 64 % 0.0 mm 246 W/m2
14:45 17.9 °C 12.0 °C 1028.7 hPa North 8.0 km/h 25.7 km/h 68 % 0.0 mm 823 W/m2
14:55 18.8 °C 10.6 °C 1028.7 hPa NE 20.9 km/h 27.4 km/h 59 % 0.0 mm 345 W/m2
15:00 17.5 °C 9.4 °C 1028.7 hPa East 12.9 km/h 27.4 km/h 59 % 0.0 mm 330 W/m2
15:05 17.1 °C 9.5 °C 1028.7 hPa NE 4.8 km/h 27.4 km/h 61 % 0.0 mm 197 W/m2
15:10 17.8 °C 10.4 °C 1028.7 hPa East 17.7 km/h 20.9 km/h 62 % 0.0 mm 765 W/m2
15:15 18.7 °C 11.7 °C 1028.7 hPa NNE 3.2 km/h 22.5 km/h 64 % 0.0 mm 707 W/m2
15:20 18.1 °C 10.7 °C 1028.7 hPa NE 12.9 km/h 22.5 km/h 62 % 0.0 mm 169 W/m2
15:25 17.1 °C 10.0 °C 1028.7 hPa North 14.5 km/h 24.1 km/h 63 % 0.0 mm 167 W/m2
15:30 16.6 °C 9.9 °C 1028.7 hPa NNE 11.3 km/h 24.1 km/h 65 % 0.0 mm 192 W/m2
15:35 16.4 °C 10.7 °C 1028.7 hPa NNE 4.8 km/h 20.9 km/h 69 % 0.0 mm 271 W/m2
15:40 17.4 °C 11.0 °C 1028.7 hPa East 3.2 km/h 20.9 km/h 66 % 0.0 mm 744 W/m2
15:45 18.5 °C 11.6 °C 1028.3 hPa NNE 8.0 km/h 20.9 km/h 64 % 0.0 mm 190 W/m2
15:50 17.4 °C 9.8 °C 1028.3 hPa NE 6.4 km/h 25.7 km/h 61 % 0.0 mm 120 W/m2
15:55 16.9 °C 10.3 °C 1028.3 hPa NNW 4.8 km/h 25.7 km/h 65 % 0.0 mm 710 W/m2
16:00 18.3 °C 9.9 °C 1028.3 hPa NE 12.9 km/h 25.7 km/h 58 % 0.0 mm 793 W/m2
16:05 18.6 °C 9.6 °C 1028.3 hPa NNE 11.3 km/h 27.4 km/h 56 % 0.0 mm 534 W/m2
16:10 18.2 °C 9.8 °C 1028.3 hPa East 12.9 km/h 27.4 km/h 58 % 0.0 mm 499 W/m2
16:15 17.3 °C 9.4 °C 1028.3 hPa NE 14.5 km/h 24.1 km/h 60 % 0.0 mm 149 W/m2
16:20 17.8 °C 11.3 °C 1028.3 hPa NE 17.7 km/h 22.5 km/h 66 % 0.0 mm 642 W/m2
16:25 18.1 °C 9.7 °C 1028.3 hPa NE 4.8 km/h 20.9 km/h 58 % 0.0 mm 626 W/m2
16:30 18.4 °C 9.4 °C 1028.3 hPa NE 8.0 km/h 22.5 km/h 56 % 0.0 mm 640 W/m2
16:35 18.6 °C 9.3 °C 1028.0 hPa ENE 6.4 km/h 24.1 km/h 55 % 0.0 mm 680 W/m2
16:40 18.8 °C 9.0 °C 1028.0 hPa NNE 8.0 km/h 25.7 km/h 53 % 0.0 mm 707 W/m2
16:45 17.7 °C 7.7 °C 1028.0 hPa NNE 19.3 km/h 25.7 km/h 52 % 0.0 mm 151 W/m2
16:50 17.9 °C 8.4 °C 1028.0 hPa NNE 11.3 km/h 22.5 km/h 54 % 0.0 mm 587 W/m2
16:55 18.2 °C 8.7 °C 1028.0 hPa NNE 6.4 km/h 20.9 km/h 54 % 0.0 mm 673 W/m2
17:00 18.4 °C 9.2 °C 1028.0 hPa North 11.3 km/h 22.5 km/h 55 % 0.0 mm 172 W/m2
17:10 17.6 °C 8.7 °C 1028.0 hPa NE 1.6 km/h 22.5 km/h 56 % 0.0 mm 543 W/m2
17:15 18.0 °C 9.1 °C 1028.0 hPa ENE 8.0 km/h 22.5 km/h 56 % 0.0 mm 480 W/m2
17:20 17.5 °C 8.6 °C 1028.0 hPa NE 6.4 km/h 22.5 km/h 56 % 0.0 mm 176 W/m2
17:30 18.1 °C 8.0 °C 1028.0 hPa NE 20.9 km/h 30.6 km/h 52 % 0.0 mm 111 W/m2
17:35 16.8 °C 7.9 °C 1028.0 hPa NE 9.7 km/h 30.6 km/h 56 % 0.0 mm 165 W/m2
17:40 17.2 °C 8.8 °C 1027.7 hPa NE 8.0 km/h 22.5 km/h 58 % 0.0 mm 461 W/m2
17:45 17.8 °C 9.5 °C 1027.7 hPa NE 19.3 km/h 19.3 km/h 58 % 0.0 mm 504 W/m2
17:50 17.8 °C 9.4 °C 1027.7 hPa NE 12.9 km/h 27.4 km/h 58 % 0.0 mm 341 W/m2
17:55 17.6 °C 9.7 °C 1027.7 hPa North 4.8 km/h 27.4 km/h 60 % 0.0 mm 202 W/m2
18:00 17.9 °C 9.2 °C 1027.7 hPa NE 4.8 km/h 24.1 km/h 57 % 0.0 mm 257 W/m2
18:05 17.6 °C 8.7 °C 1028.0 hPa North 6.4 km/h 25.7 km/h 56 % 0.0 mm 113 W/m2
18:10 17.2 °C 9.4 °C 1028.0 hPa ENE 17.7 km/h 25.7 km/h 60 % 0.0 mm 343 W/m2
18:15 17.3 °C 9.7 °C 1027.7 hPa NNE 8.0 km/h 25.7 km/h 61 % 0.0 mm 362 W/m2
18:20 17.6 °C 9.7 °C 1027.7 hPa NE 9.7 km/h 19.3 km/h 60 % 0.0 mm 422 W/m2
18:25 17.5 °C 9.4 °C 1028.0 hPa NNE 4.8 km/h 29.0 km/h 59 % 0.0 mm 327 W/m2
18:30 17.2 °C 8.9 °C 1027.7 hPa NE 4.8 km/h 29.0 km/h 58 % 0.0 mm 285 W/m2
18:35 17.1 °C 8.8 °C 1027.7 hPa NNE 19.3 km/h 27.4 km/h 58 % 0.0 mm 269 W/m2
18:40 16.9 °C 8.6 °C 1027.7 hPa NE 19.3 km/h 27.4 km/h 58 % 0.0 mm 88 W/m2
18:45 16.2 °C 8.4 °C 1027.7 hPa NNE 11.3 km/h 25.7 km/h 60 % 0.0 mm 76 W/m2
18:55 16.4 °C 8.8 °C 1027.7 hPa ENE 14.5 km/h 24.1 km/h 61 % 0.0 mm 105 W/m2
19:00 16.4 °C 8.4 °C 1028.0 hPa NNE 8.0 km/h 24.1 km/h 59 % 0.0 mm 74 W/m2
19:05 16.3 °C 8.5 °C 1028.0 hPa NNE 19.3 km/h 22.5 km/h 60 % 0.0 mm 67 W/m2
19:10 16.1 °C 8.5 °C 1028.0 hPa NNE 11.3 km/h 22.5 km/h 61 % 0.0 mm 65 W/m2
19:15 15.9 °C 8.4 °C 1028.0 hPa NE 11.3 km/h 19.3 km/h 61 % 0.0 mm 63 W/m2
19:20 15.8 °C 8.5 °C 1028.0 hPa ENE 11.3 km/h 19.3 km/h 62 % 0.0 mm 86 W/m2
19:25 15.6 °C 7.8 °C 1028.0 hPa NNE 9.7 km/h 25.7 km/h 60 % 0.0 mm 56 W/m2
19:30 15.4 °C 7.7 °C 1028.0 hPa ENE 8.0 km/h 25.7 km/h 60 % 0.0 mm 53 W/m2
19:35 15.3 °C 7.8 °C 1028.0 hPa NNE 16.1 km/h 20.9 km/h 61 % 0.0 mm 47 W/m2
19:40 15.1 °C 8.1 °C 1028.0 hPa Calm   20.9 km/h 63 % 0.0 mm 44 W/m2
19:45 14.8 °C 7.9 °C 1028.0 hPa NE 9.7 km/h 20.9 km/h 63 % 0.0 mm 40 W/m2
19:50 14.8 °C 8.3 °C 1028.0 hPa North 8.0 km/h 17.7 km/h 65 % 0.0 mm 37 W/m2
19:55 14.4 °C 8.4 °C 1028.0 hPa North 9.7 km/h 17.7 km/h 67 % 0.0 mm 33 W/m2
20:00 14.2 °C 8.4 °C 1028.0 hPa NNE 16.1 km/h 17.7 km/h 68 % 0.0 mm 30 W/m2
20:05 14.1 °C 8.2 °C 1028.0 hPa NNE 9.7 km/h 17.7 km/h 68 % 0.0 mm 28 W/m2
20:10 13.8 °C 8.0 °C 1028.0 hPa NNE 4.8 km/h 20.9 km/h 68 % 0.0 mm 25 W/m2
20:15 13.8 °C 8.0 °C 1028.0 hPa NE 6.4 km/h 22.5 km/h 68 % 0.0 mm 21 W/m2
20:20 13.6 °C 8.0 °C 1028.3 hPa NE 9.7 km/h 22.5 km/h 69 % 0.0 mm 18 W/m2
20:25 13.4 °C 8.0 °C 1028.3 hPa NNE 3.2 km/h 17.7 km/h 70 % 0.0 mm 14 W/m2
20:30 13.1 °C 8.1 °C 1028.3 hPa North 11.3 km/h 19.3 km/h 72 % 0.0 mm 11 W/m2
20:35 12.9 °C 8.2 °C 1028.3 hPa North 6.4 km/h 19.3 km/h 73 % 0.0 mm 9 W/m2
20:40 12.8 °C 8.1 °C 1028.3 hPa ENE 6.4 km/h 17.7 km/h 73 % 0.0 mm 5 W/m2
20:45 12.7 °C 8.1 °C 1028.3 hPa North 6.4 km/h 19.3 km/h 74 % 0.0 mm 0 W/m2
20:50 12.6 °C 8.0 °C 1028.7 hPa NNW 3.2 km/h 19.3 km/h 74 % 0.0 mm 0 W/m2
20:55 12.5 °C 8.0 °C 1028.7 hPa NNE 3.2 km/h 19.3 km/h 74 % 0.0 mm 0 W/m2
21:00 12.3 °C 8.0 °C 1028.7 hPa NNW 3.2 km/h 19.3 km/h 75 % 0.0 mm 0 W/m2
21:05 12.2 °C 7.9 °C 1028.7 hPa North 4.8 km/h 20.9 km/h 75 % 0.0 mm 0 W/m2
21:10 12.2 °C 8.1 °C 1028.7 hPa NNW 6.4 km/h 20.9 km/h 76 % 0.0 mm 0 W/m2
21:15 12.1 °C 8.0 °C 1029.0 hPa ENE 14.5 km/h 22.5 km/h 76 % 0.0 mm 0 W/m2
21:20 11.9 °C 7.8 °C 1029.0 hPa NNW 4.8 km/h 22.5 km/h 76 % 0.0 mm 0 W/m2
21:25 11.9 °C 7.8 °C 1029.0 hPa North 9.7 km/h 19.3 km/h 76 % 0.0 mm 0 W/m2
21:30 11.7 °C 7.8 °C 1029.0 hPa NNE 6.4 km/h 20.9 km/h 77 % 0.0 mm 0 W/m2
21:35 11.5 °C 7.6 °C 1029.0 hPa North 4.8 km/h 20.9 km/h 77 % 0.0 mm 0 W/m2
21:40 11.3 °C 7.6 °C 1029.0 hPa North 8.0 km/h 22.5 km/h 78 % 0.0 mm 0 W/m2
21:45 11.3 °C 7.6 °C 1029.3 hPa NNE 14.5 km/h 22.5 km/h 78 % 0.0 mm 0 W/m2
21:50 11.2 °C 7.5 °C 1029.3 hPa North 4.8 km/h 17.7 km/h 78 % 0.0 mm 0 W/m2
21:55 11.2 °C 7.5 °C 1029.3 hPa NNE 6.4 km/h 14.5 km/h 78 % 0.0 mm 0 W/m2
22:00 11.1 °C 7.4 °C 1029.3 hPa North 11.3 km/h 22.5 km/h 78 % 0.0 mm 0 W/m2
22:05 11.2 °C 7.5 °C 1029.3 hPa North 8.0 km/h 22.5 km/h 78 % 0.0 mm 0 W/m2
22:10 11.1 °C 7.4 °C 1029.3 hPa NNE 3.2 km/h 17.7 km/h 78 % 0.0 mm 0 W/m2
22:15 10.9 °C 7.3 °C 1029.7 hPa North 12.9 km/h 17.7 km/h 78 % 0.0 mm 0 W/m2
22:20 10.8 °C 7.1 °C 1029.7 hPa North 6.4 km/h 17.7 km/h 78 % 0.0 mm 0 W/m2
22:25 10.7 °C 7.0 °C 1029.7 hPa NE 6.4 km/h 19.3 km/h 78 % 0.0 mm 0 W/m2
22:30 10.4 °C 7.0 °C 1029.7 hPa NNW 8.0 km/h 19.3 km/h 79 % 0.0 mm 0 W/m2
22:35 10.5 °C 7.0 °C 1029.7 hPa North 11.3 km/h 19.3 km/h 79 % 0.0 mm 0 W/m2
22:40 10.4 °C 7.0 °C 1029.7 hPa NNW 11.3 km/h 19.3 km/h 79 % 0.0 mm 0 W/m2
22:45 10.3 °C 6.8 °C 1029.7 hPa ENE 4.8 km/h 17.7 km/h 79 % 0.0 mm 0 W/m2
22:50 10.1 °C 6.8 °C 1029.7 hPa North 9.7 km/h 17.7 km/h 80 % 0.0 mm 0 W/m2
22:55 10.0 °C 6.9 °C 1029.7 hPa North 8.0 km/h 16.1 km/h 81 % 0.0 mm 0 W/m2
23:00 9.9 °C 6.8 °C 1029.7 hPa North 14.5 km/h 19.3 km/h 81 % 0.0 mm 0 W/m2
23:05 9.8 °C 6.7 °C 1029.7 hPa North 16.1 km/h 19.3 km/h 81 % 0.0 mm 0 W/m2
23:10 9.8 °C 6.8 °C 1029.7 hPa ENE 6.4 km/h 22.5 km/h 82 % 0.0 mm 0 W/m2
23:15 9.7 °C 6.7 °C 1029.7 hPa NNE 12.9 km/h 22.5 km/h 82 % 0.0 mm 0 W/m2
23:20 9.6 °C 6.9 °C 1029.7 hPa North 14.5 km/h 16.1 km/h 83 % 0.0 mm 0 W/m2
23:25 9.3 °C 6.6 °C 1029.7 hPa North 4.8 km/h 17.7 km/h 83 % 0.0 mm 0 W/m2
23:30 9.2 °C 6.7 °C 1029.7 hPa North 14.5 km/h 17.7 km/h 84 % 0.0 mm 0 W/m2
23:35 9.2 °C 6.7 °C 1029.7 hPa NNE 6.4 km/h 17.7 km/h 84 % 0.0 mm 0 W/m2
23:40 9.2 °C 6.7 °C 1029.7 hPa NE 6.4 km/h 14.5 km/h 84 % 0.0 mm 0 W/m2
23:45 9.2 °C 6.7 °C 1029.7 hPa NNW 1.6 km/h 12.9 km/h 84 % 0.0 mm 0 W/m2
23:50 9.1 °C 6.5 °C 1029.7 hPa Calm   12.9 km/h 84 % 0.0 mm 0 W/m2
23:55 8.9 °C 6.3 °C 1029.7 hPa NE 3.2 km/h 12.9 km/h 84 % 0.0 mm 0 W/m2
Avec l'autorisation de Weather Underground - 1.75 mb